Time;durP1;ratioP1;P1;durP2;ratioP2;P2;SDS_P1;SDS_P2;PMS_P1;PMS_P2;Temp;Humidity;BMP_temperature;BMP_pressure;BME280_temperature;BME280_humidity;BME280_pressure;Samples;Min_cycle;Max_cycle;Signal;HPM_P1;HPM_P2
2023/12/09 00:01:44;;;;;;;3.67;2.47;;;18.60;53.90;;;;;;4954746;28;20190;-67
2023/12/09 00:04:10;;;;;;;4.28;2.78;;;18.60;53.90;;;;;;4960568;28;20162;-67
2023/12/09 00:06:35;;;;;;;3.33;2.63;;;18.60;53.90;;;;;;4979110;28;20516;-69
2023/12/09 00:09:01;;;;;;;3.80;2.70;;;18.60;53.90;;;;;;4980202;28;20026;-68
2023/12/09 00:11:26;;;;;;;3.28;2.58;;;18.50;53.90;;;;;;4971092;28;20022;-68
2023/12/09 00:13:52;;;;;;;3.67;2.70;;;18.60;54.60;;;;;;4977119;28;20031;-69
2023/12/09 00:16:18;;;;;;;3.35;2.25;;;18.50;53.90;;;;;;4982430;28;20027;-69
2023/12/09 00:18:44;;;;;;;3.58;2.70;;;18.60;53.90;;;;;;4981575;28;20035;-66
2023/12/09 00:21:10;;;;;;;3.08;2.50;;;18.60;54.00;;;;;;4976884;28;20516;-68
2023/12/09 00:23:36;;;;;;;3.53;2.50;;;18.60;54.00;;;;;;4981929;28;20051;-68
2023/12/09 00:26:02;;;;;;;3.42;2.53;;;18.60;53.90;;;;;;4983198;28;20035;-69
2023/12/09 00:28:28;;;;;;;3.35;2.33;;;18.50;53.90;;;;;;4962463;28;20030;-68
2023/12/09 00:30:53;;;;;;;3.90;2.75;;;18.50;53.90;;;;;;4980076;28;20513;-68
2023/12/09 00:33:19;;;;;;;2.78;2.20;;;18.60;53.90;;;;;;4983695;28;20035;-68
2023/12/09 00:35:44;;;;;;;3.03;2.33;;;18.50;53.90;;;;;;4985826;28;20390;-68
2023/12/09 00:38:10;;;;;;;4.28;2.90;;;18.50;53.90;;;;;;4982470;28;20042;-70
2023/12/09 00:40:35;;;;;;;4.20;2.42;;;18.60;54.00;;;;;;4982503;28;20038;-67
2023/12/09 00:43:01;;;;;;;3.70;2.00;;;18.50;53.90;;;;;;4975503;28;20504;-67
2023/12/09 00:45:26;;;;;;;4.25;2.40;;;18.50;54.00;;;;;;4981380;28;20085;-69
2023/12/09 00:47:52;;;;;;;3.08;2.35;;;18.50;54.00;;;;;;4986320;28;20118;-69
2023/12/09 00:50:17;;;;;;;2.95;2.08;;;18.50;53.90;;;;;;4978308;28;20473;-67
2023/12/09 00:52:43;;;;;;;2.40;1.92;;;18.50;53.90;;;;;;4985623;28;20118;-67
2023/12/09 00:55:09;;;;;;;3.00;2.33;;;18.50;54.00;;;;;;4986318;28;20117;-67
2023/12/09 00:57:35;;;;;;;3.13;2.17;;;18.60;53.90;;;;;;4985579;28;20061;-70
2023/12/09 01:00:00;;;;;;;3.10;2.10;;;18.50;53.90;;;;;;4986708;28;20042;-68
2023/12/09 01:02:26;;;;;;;3.00;2.20;;;18.50;53.90;;;;;;4981581;28;20054;-68
2023/12/09 01:04:51;;;;;;;2.70;2.28;;;18.50;54.00;;;;;;4965250;28;20040;-69
2023/12/09 01:07:17;;;;;;;2.58;2.35;;;18.50;54.00;;;;;;4977933;28;20109;-68
2023/12/09 01:09:42;;;;;;;2.90;2.38;;;18.40;54.00;;;;;;4982393;28;20023;-70
2023/12/09 01:12:08;;;;;;;2.25;2.05;;;18.40;54.10;;;;;;4983315;28;20089;-68
2023/12/09 01:14:34;;;;;;;3.42;2.38;;;18.40;54.20;;;;;;4982918;28;20489;-69
2023/12/09 01:16:59;;;;;;;3.30;2.30;;;18.40;54.30;;;;;;4987003;28;20494;-69
2023/12/09 01:19:24;;;;;;;2.47;2.03;;;18.30;54.40;;;;;;4983393;28;20030;-69
2023/12/09 01:21:50;;;;;;;3.33;2.10;;;18.30;54.40;;;;;;4977502;28;20031;-68
2023/12/09 01:24:16;;;;;;;2.42;2.10;;;18.30;54.60;;;;;;4981525;28;20030;-68
2023/12/09 01:26:41;;;;;;;2.17;1.90;;;18.20;54.50;;;;;;4985950;28;20584;-69
2023/12/09 01:29:07;;;;;;;2.53;1.73;;;18.20;54.60;;;;;;4986628;28;20022;-68
2023/12/09 01:31:32;;;;;;;3.42;2.17;;;18.20;54.70;;;;;;4987432;28;20591;-67
2023/12/09 01:33:58;;;;;;;4.35;2.05;;;18.20;54.70;;;;;;4979443;28;20056;-68
2023/12/09 01:36:23;;;;;;;2.78;1.90;;;18.10;54.90;;;;;;4982605;28;20050;-68
2023/12/09 01:38:49;;;;;;;2.50;2.00;;;18.10;54.90;;;;;;4983824;28;20537;-68
2023/12/09 01:41:14;;;;;;;3.88;1.75;;;18.10;54.90;;;;;;4981370;28;20050;-68
2023/12/09 01:43:40;;;;;;;2.65;1.90;;;18.10;55.00;;;;;;4986141;28;20105;-68
2023/12/09 01:46:09;;;;;;;3.85;1.83;;;18.10;54.80;;;;;;4983491;28;20037;-69
2023/12/09 01:48:35;;;;;;;1.90;1.70;;;18.10;54.80;;;;;;4983924;28;20038;-68
2023/12/09 01:51:02;;;;;;;3.63;1.73;;;18.10;54.80;;;;;;4980551;28;20405;-69
2023/12/09 01:53:29;;;;;;;3.08;2.05;;;18.10;54.80;;;;;;4985992;28;20034;-68
2023/12/09 01:55:57;;;;;;;2.08;1.85;;;18.10;54.70;;;;;;4983566;28;20441;-67
2023/12/09 01:58:23;;;;;;;2.47;2.20;;;18.10;54.60;;;;;;4956199;28;20034;-68
2023/12/09 02:00:48;;;;;;;2.17;1.80;;;18.20;54.60;;;;;;4982166;28;20045;-69
2023/12/09 02:03:14;;;;;;;2.08;1.70;;;18.20;54.60;;;;;;4982457;28;20033;-68
2023/12/09 02:05:42;;;;;;;2.53;2.00;;;18.20;54.50;;;;;;4981346;28;20042;-68
2023/12/09 02:08:07;;;;;;;1.90;1.80;;;18.20;54.30;;;;;;4983664;28;20026;-67
2023/12/09 02:10:33;;;;;;;2.40;1.63;;;18.30;54.30;;;;;;4979433;28;20505;-70
2023/12/09 02:13:16;;;;;;;2.90;1.92;;;18.40;54.10;;;;;;4982152;28;20034;-68
2023/12/09 02:15:54;;;;;;;2.33;1.85;;;18.50;53.90;;;;;;4981575;28;20038;-69
2023/12/09 02:18:22;;;;;;;2.65;1.80;;;18.60;53.70;;;;;;4981245;28;20038;-67
2023/12/09 02:20:47;;;;;;;1.90;1.70;;;18.60;53.50;;;;;;4980805;28;20088;-67
2023/12/09 02:23:13;;;;;;;1.60;1.50;;;18.80;53.40;;;;;;4976627;28;20490;-67
2023/12/09 02:25:39;;;;;;;2.47;1.83;;;18.90;53.20;;;;;;4982604;28;20088;-67
2023/12/09 02:28:16;;;;;;;1.77;1.60;;;19.00;53.00;;;;;;4979794;28;20537;-68
2023/12/09 02:31:03;;;;;;;1.63;1.50;;;19.10;52.80;;;;;;4982834;28;20088;-68
2023/12/09 02:33:30;;;;;;;2.15;1.63;;;19.10;52.60;;;;;;4983208;28;20037;-68
2023/12/09 02:35:56;;;;;;;2.15;1.45;;;19.20;52.60;;;;;;4969126;28;20041;-68
2023/12/09 02:38:23;;;;;;;1.70;1.45;;;19.30;52.50;;;;;;4980755;28;20042;-68
2023/12/09 02:40:49;;;;;;;1.95;1.58;;;19.30;52.30;;;;;;4985032;28;20062;-69
2023/12/09 02:43:15;;;;;;;1.95;1.50;;;19.40;52.20;;;;;;4974219;28;20044;-68
2023/12/09 02:45:43;;;;;;;2.05;1.65;;;19.50;52.20;;;;;;4981477;28;20117;-68
2023/12/09 02:48:09;;;;;;;1.85;1.60;;;19.60;52.20;;;;;;4982062;28;20125;-68
2023/12/09 02:50:36;;;;;;;2.00;1.45;;;19.60;52.00;;;;;;4985575;28;20135;-69
2023/12/09 02:53:01;;;;;;;1.40;1.30;;;19.60;51.90;;;;;;4984992;28;20509;-68
2023/12/09 02:55:27;;;;;;;2.15;1.30;;;19.60;51.90;;;;;;4984813;28;20038;-68
2023/12/09 02:57:52;;;;;;;1.65;1.40;;;19.70;51.90;;;;;;4985179;28;20034;-66
2023/12/09 03:00:18;;;;;;;1.33;1.23;;;19.70;52.00;;;;;;4980038;28;20034;-67
2023/12/09 03:02:43;;;;;;;1.42;1.10;;;19.70;52.00;;;;;;4982535;28;20034;-67
2023/12/09 03:05:09;;;;;;;1.95;1.40;;;19.70;52.10;;;;;;4982032;28;20089;-68
2023/12/09 03:07:34;;;;;;;1.10;1.00;;;19.60;52.10;;;;;;4982018;28;20031;-68
2023/12/09 03:10:00;;;;;;;1.85;1.42;;;19.60;52.20;;;;;;4966449;28;20046;-68
2023/12/09 03:12:25;;;;;;;1.70;1.40;;;19.60;52.30;;;;;;4983945;28;20034;-69
2023/12/09 03:14:52;;;;;;;1.85;1.20;;;19.50;52.40;;;;;;4984279;28;20037;-68
2023/12/09 03:17:18;;;;;;;2.35;1.83;;;19.40;53.10;;;;;;4983038;28;20057;-67
2023/12/09 03:19:44;;;;;;;1.63;1.10;;;19.40;52.60;;;;;;4984468;28;20038;-67
2023/12/09 03:22:09;;;;;;;3.20;1.45;;;19.30;52.70;;;;;;4984697;28;20061;-68
2023/12/09 03:24:35;;;;;;;2.22;1.45;;;19.30;52.80;;;;;;4985065;28;20026;-69
2023/12/09 03:27:00;;;;;;;1.73;1.30;;;19.20;52.90;;;;;;4973230;28;20030;-67
2023/12/09 03:29:26;;;;;;;1.88;1.35;;;19.20;53.00;;;;;;4985487;28;20405;-68
2023/12/09 03:31:51;;;;;;;1.30;1.20;;;19.10;53.10;;;;;;4983660;28;20030;-68
2023/12/09 03:34:17;;;;;;;1.50;1.35;;;19.10;53.30;;;;;;4969833;28;20030;-68
2023/12/09 03:36:42;;;;;;;1.70;1.20;;;19.00;53.30;;;;;;4977941;28;20161;-67
2023/12/09 03:39:09;;;;;;;1.42;1.13;;;19.00;53.40;;;;;;4982960;28;20089;-67
2023/12/09 03:41:34;;;;;;;1.83;1.30;;;18.90;53.50;;;;;;4981930;28;20030;-67
2023/12/09 03:44:00;;;;;;;1.48;1.02;;;18.90;53.60;;;;;;4980299;28;20026;-67
2023/12/09 03:46:25;;;;;;;1.30;1.20;;;18.80;53.70;;;;;;4978179;28;20038;-68
2023/12/09 03:48:51;;;;;;;1.30;1.20;;;18.80;53.70;;;;;;4983105;28;20161;-66
2023/12/09 03:51:17;;;;;;;1.27;1.00;;;18.70;53.80;;;;;;4967765;28;20034;-66
2023/12/09 03:53:42;;;;;;;1.02;0.90;;;18.70;53.90;;;;;;4984625;28;20028;-68
2023/12/09 03:56:11;;;;;;;1.10;0.95;;;18.70;54.00;;;;;;4980137;28;20982;-66
2023/12/09 03:58:37;;;;;;;1.33;1.10;;;18.60;54.10;;;;;;4984298;28;20046;-66
2023/12/09 04:01:03;;;;;;;1.20;1.10;;;18.60;54.20;;;;;;4975933;28;20069;-67
2023/12/09 04:03:28;;;;;;;1.25;1.10;;;18.60;54.30;;;;;;4978463;28;20046;-68
2023/12/09 04:05:54;;;;;;;1.92;1.20;;;18.50;54.30;;;;;;4977086;28;20102;-68
2023/12/09 04:08:20;;;;;;;1.55;1.10;;;18.50;54.40;;;;;;4982074;28;20088;-65
2023/12/09 04:10:45;;;;;;;1.65;1.35;;;18.50;54.40;;;;;;4983431;28;20034;-68
2023/12/09 04:13:11;;;;;;;1.83;1.40;;;18.50;54.50;;;;;;4981292;28;20122;-65
2023/12/09 04:15:38;;;;;;;1.38;1.13;;;18.50;54.50;;;;;;4980003;28;20031;-67
2023/12/09 04:18:04;;;;;;;1.58;0.98;;;18.40;54.50;;;;;;4981044;28;20097;-67
2023/12/09 04:20:30;;;;;;;1.88;1.40;;;18.40;54.60;;;;;;4983600;28;20037;-67
2023/12/09 04:22:55;;;;;;;1.13;0.90;;;18.30;54.60;;;;;;4981390;28;20034;-68
2023/12/09 04:25:21;;;;;;;1.20;1.10;;;18.30;54.60;;;;;;4979690;28;20031;-70
2023/12/09 04:27:46;;;;;;;1.08;0.98;;;18.30;54.60;;;;;;4968156;28;20076;-68
2023/12/09 04:30:12;;;;;;;1.10;1.00;;;18.30;54.70;;;;;;4980522;28;20088;-67
2023/12/09 04:32:38;;;;;;;1.05;0.95;;;18.30;54.70;;;;;;4983266;28;20031;-66
2023/12/09 04:35:04;;;;;;;1.58;1.20;;;18.30;54.80;;;;;;4983191;28;20031;-66
2023/12/09 04:37:30;;;;;;;1.38;1.10;;;18.30;54.80;;;;;;4983626;28;20590;-66
2023/12/09 04:39:55;;;;;;;1.33;1.10;;;18.30;54.80;;;;;;4982201;28;20030;-67
2023/12/09 04:42:21;;;;;;;1.10;1.00;;;18.20;55.40;;;;;;4982381;28;20066;-67
2023/12/09 04:44:46;;;;;;;1.20;1.10;;;18.20;54.90;;;;;;4965164;28;20058;-68
2023/12/09 04:47:12;;;;;;;1.33;0.93;;;18.20;54.90;;;;;;4966963;28;20486;-68
2023/12/09 04:49:37;;;;;;;1.65;1.00;;;18.20;54.90;;;;;;4983944;28;20038;-69
2023/12/09 04:52:04;;;;;;;1.40;1.30;;;18.20;55.00;;;;;;4981630;28;20088;-69
2023/12/09 04:54:29;;;;;;;1.20;1.08;;;18.20;55.00;;;;;;4963594;28;20531;-69
2023/12/09 04:56:56;;;;;;;1.20;0.80;;;18.10;54.80;;;;;;4982330;28;20034;-66
2023/12/09 04:59:22;;;;;;;1.15;1.00;;;18.20;55.00;;;;;;4982155;28;20173;-69
2023/12/09 05:01:48;;;;;;;1.10;1.00;;;18.10;55.00;;;;;;4982331;28;20027;-68
2023/12/09 05:04:14;;;;;;;1.40;1.02;;;18.10;55.00;;;;;;4982882;28;20062;-68
2023/12/09 05:06:39;;;;;;;1.65;1.15;;;18.10;55.00;;;;;;4984062;28;20060;-68
2023/12/09 05:09:05;;;;;;;1.13;0.95;;;18.10;54.90;;;;;;4967962;28;20030;-67
2023/12/09 05:11:31;;;;;;;1.00;0.90;;;18.10;55.00;;;;;;4987129;28;20037;-68
2023/12/09 05:13:56;;;;;;;1.30;0.98;;;18.10;55.00;;;;;;4988212;28;20034;-69
2023/12/09 05:16:22;;;;;;;1.10;1.00;;;18.10;55.10;;;;;;4969000;28;20026;-69
2023/12/09 05:18:47;;;;;;;0.98;0.90;;;18.00;55.10;;;;;;4986155;28;20026;-68
2023/12/09 05:21:13;;;;;;;1.15;1.00;;;18.00;55.00;;;;;;4986219;28;20042;-69
2023/12/09 05:23:38;;;;;;;1.10;1.00;;;18.00;55.00;;;;;;4986373;28;20026;-69
2023/12/09 05:26:04;;;;;;;1.27;1.00;;;18.00;55.00;;;;;;4970126;28;20038;-67
2023/12/09 05:28:30;;;;;;;1.45;1.00;;;18.00;55.00;;;;;;4987187;28;20341;-67
2023/12/09 05:30:56;;;;;;;1.10;1.00;;;18.00;55.00;;;;;;4985003;28;20046;-68
2023/12/09 05:33:21;;;;;;;1.00;0.90;;;18.00;55.00;;;;;;4985501;28;20023;-68
2023/12/09 05:35:47;;;;;;;1.48;1.10;;;18.00;55.10;;;;;;4985221;28;20030;-70
2023/12/09 05:38:12;;;;;;;1.42;1.08;;;18.00;55.10;;;;;;4983065;28;20133;-66
2023/12/09 05:40:38;;;;;;;1.40;1.00;;;18.00;55.00;;;;;;4985742;28;20027;-69
2023/12/09 05:43:03;;;;;;;1.48;1.30;;;18.00;55.70;;;;;;4984020;28;20034;-68
2023/12/09 05:45:29;;;;;;;1.00;0.80;;;18.00;54.90;;;;;;4982877;28;20106;-70
2023/12/09 05:47:56;;;;;;;1.17;1.02;;;18.10;54.80;;;;;;4985784;28;20082;-68
2023/12/09 05:50:22;;;;;;;0.90;0.90;;;18.20;55.20;;;;;;4969482;28;20622;-68
2023/12/09 05:52:47;;;;;;;0.98;0.90;;;18.20;54.30;;;;;;4984884;28;20038;-68
2023/12/09 05:55:16;;;;;;;1.10;1.00;;;18.40;54.10;;;;;;4984100;28;20054;-69
2023/12/09 05:57:42;;;;;;;1.23;1.00;;;18.60;53.90;;;;;;4983519;28;20100;-68
2023/12/09 06:00:10;;;;;;;0.80;0.80;;;18.70;53.60;;;;;;4983981;28;20041;-69
2023/12/09 06:02:35;;;;;;;1.25;1.15;;;18.80;53.30;;;;;;4970936;28;20064;-67
2023/12/09 06:05:01;;;;;;;0.98;0.80;;;18.90;53.00;;;;;;4986496;28;20034;-68
2023/12/09 06:07:26;;;;;;;0.77;0.77;;;19.00;52.80;;;;;;4970641;28;20894;-67
2023/12/09 06:09:52;;;;;;;0.98;0.77;;;19.20;52.60;;;;;;4985469;28;20019;-67
2023/12/09 06:12:18;;;;;;;0.70;0.68;;;19.30;52.50;;;;;;4985622;28;20560;-70
2023/12/09 06:14:43;;;;;;;0.68;0.60;;;19.30;52.30;;;;;;4986449;28;20023;-66
2023/12/09 06:17:09;;;;;;;0.98;0.90;;;19.40;52.30;;;;;;4985220;28;20034;-66
2023/12/09 06:19:34;;;;;;;2.33;1.08;;;19.50;52.10;;;;;;4985417;28;20558;-64
2023/12/09 06:21:59;;;;;;;1.00;0.90;;;19.60;51.90;;;;;;4982645;28;20693;-66
2023/12/09 06:24:25;;;;;;;0.70;0.70;;;19.70;51.80;;;;;;4983209;28;20034;-67
2023/12/09 06:26:50;;;;;;;1.13;0.80;;;19.80;51.80;;;;;;4986301;28;20073;-67
2023/12/09 06:29:16;;;;;;;1.65;0.65;;;19.80;51.70;;;;;;4985091;28;20026;-67
2023/12/09 06:31:41;;;;;;;2.55;0.90;;;19.80;51.70;;;;;;4986202;28;20553;-67
2023/12/09 06:34:07;;;;;;;1.95;1.25;;;19.80;51.60;;;;;;4986592;28;20045;-66
2023/12/09 06:36:32;;;;;;;1.83;1.23;;;19.80;51.70;;;;;;4985177;28;20149;-67
2023/12/09 06:38:58;;;;;;;2.78;1.42;;;19.80;51.80;;;;;;4985789;28;20509;-66
2023/12/09 06:41:23;;;;;;;2.20;0.90;;;19.80;51.90;;;;;;4985116;28;20042;-67
2023/12/09 06:43:49;;;;;;;1.25;0.90;;;19.80;52.00;;;;;;4986154;28;20105;-68
2023/12/09 06:46:14;;;;;;;1.92;1.08;;;19.70;52.10;;;;;;4985524;28;20502;-67
2023/12/09 06:48:40;;;;;;;1.50;1.23;;;19.60;52.20;;;;;;4985935;28;20073;-69
2023/12/09 06:51:12;;;;;;;1.48;1.38;;;19.60;52.40;;;;;;4987288;28;20045;-68
2023/12/09 06:53:38;;;;;;;2.00;1.30;;;19.50;52.40;;;;;;4978849;28;20049;-70
2023/12/09 06:56:05;;;;;;;1.52;1.42;;;19.50;52.60;;;;;;4986459;28;20518;-68
2023/12/09 06:58:31;;;;;;;1.63;1.20;;;19.40;52.70;;;;;;4967667;28;20031;-70
2023/12/09 07:00:56;;;;;;;2.05;1.60;;;19.40;52.70;;;;;;4986173;28;20046;-70
2023/12/09 07:03:22;;;;;;;1.40;1.25;;;19.30;53.40;;;;;;4984839;28;20058;-68
2023/12/09 07:05:48;;;;;;;1.10;0.90;;;19.30;53.00;;;;;;4983782;28;20045;-68
2023/12/09 07:08:14;;;;;;;1.33;1.20;;;19.20;53.10;;;;;;4983411;28;20031;-68
2023/12/09 07:10:44;;;;;;;2.10;1.30;;;19.20;53.20;;;;;;4984391;28;20047;-69
2023/12/09 07:13:09;;;;;;;2.90;1.40;;;19.10;53.80;;;;;;4986181;28;20041;-66
2023/12/09 07:15:34;;;;;;;1.35;1.20;;;19.10;53.30;;;;;;4981213;28;20030;-69
2023/12/09 07:18:00;;;;;;;1.33;1.23;;;19.00;53.50;;;;;;4985480;28;20026;-68
2023/12/09 07:20:25;;;;;;;1.67;1.50;;;19.00;53.50;;;;;;4984550;28;20034;-66
2023/12/09 07:22:51;;;;;;;1.95;1.50;;;18.90;53.60;;;;;;4969376;28;20084;-68
2023/12/09 07:25:16;;;;;;;3.42;1.35;;;18.90;53.70;;;;;;4982894;28;20132;-66
2023/12/09 07:27:42;;;;;;;2.63;1.40;;;18.80;53.70;;;;;;4981938;28;20102;-67
2023/12/09 07:30:07;;;;;;;2.00;1.80;;;18.80;53.80;;;;;;4985738;28;20519;-65
2023/12/09 07:32:33;;;;;;;3.95;2.20;;;18.80;54.00;;;;;;4982366;28;20066;-64
2023/12/09 07:34:58;;;;;;;4.00;2.10;;;18.70;53.90;;;;;;4984009;28;20498;-65
2023/12/09 07:37:24;;;;;;;5.28;2.58;;;18.70;54.20;;;;;;4982213;28;20041;-67
2023/12/09 07:39:49;;;;;;;5.72;2.72;;;18.60;54.20;;;;;;4979059;28;20956;-67
2023/12/09 07:42:15;;;;;;;4.55;2.45;;;18.60;54.30;;;;;;4985490;28;20030;-65
2023/12/09 07:44:40;;;;;;;6.75;3.78;;;18.60;54.50;;;;;;4977836;28;20034;-66
2023/12/09 07:47:06;;;;;;;5.20;3.53;;;18.50;54.50;;;;;;4984895;28;20054;-65
2023/12/09 07:49:31;;;;;;;7.65;4.22;;;18.50;54.60;;;;;;4985202;28;20031;-65
2023/12/09 07:51:57;;;;;;;10.25;4.00;;;18.50;54.70;;;;;;4986888;28;20035;-64
2023/12/09 07:54:22;;;;;;;9.77;4.45;;;18.50;54.80;;;;;;4985250;28;20049;-66
2023/12/09 07:56:48;;;;;;;10.98;5.07;;;18.40;54.70;;;;;;4987236;28;20543;-64
2023/12/09 07:59:13;;;;;;;9.80;4.28;;;18.40;54.70;;;;;;4986336;28;20081;-65
2023/12/09 08:01:40;;;;;;;6.85;4.20;;;18.40;54.70;;;;;;4987854;28;20034;-64
2023/12/09 08:04:06;;;;;;;8.90;4.30;;;18.40;54.80;;;;;;4987106;28;20042;-68
2023/12/09 08:06:32;;;;;;;9.90;4.85;;;18.30;54.70;;;;;;4985064;28;20459;-63
2023/12/09 08:08:57;;;;;;;8.20;4.47;;;18.30;54.60;;;;;;4989613;28;20034;-63
2023/12/09 08:11:23;;;;;;;8.77;4.13;;;18.30;54.70;;;;;;4983596;28;20033;-63
2023/12/09 08:13:48;;;;;;;8.38;3.88;;;18.30;54.70;;;;;;4969140;28;20030;-66
2023/12/09 08:16:14;;;;;;;9.02;4.95;;;18.30;54.70;;;;;;4985710;28;20512;-65
2023/12/09 08:18:42;;;;;;;6.30;3.92;;;18.30;54.80;;;;;;4989292;28;20635;-64
2023/12/09 08:21:07;;;;;;;10.18;4.63;;;18.20;54.70;;;;;;4955356;28;20055;-66
2023/12/09 08:23:33;;;;;;;6.35;4.05;;;18.20;54.80;;;;;;4987595;28;20033;-66
2023/12/09 08:25:58;;;;;;;7.03;4.25;;;18.20;54.70;;;;;;4987708;28;20609;-66
2023/12/09 08:28:27;;;;;;;9.43;4.97;;;18.20;54.90;;;;;;4986537;28;20449;-66
2023/12/09 08:30:53;;;;;;;8.63;4.65;;;18.20;54.80;;;;;;4990878;28;20159;-68
2023/12/09 08:33:18;;;;;;;8.70;4.05;;;18.10;54.80;;;;;;4991578;28;20030;-64
2023/12/09 08:35:44;;;;;;;8.60;4.32;;;18.10;54.90;;;;;;4983051;28;20603;-64
2023/12/09 08:38:10;;;;;;;8.73;3.95;;;18.10;54.80;;;;;;4984777;28;20045;-66
2023/12/09 08:40:35;;;;;;;10.23;4.43;;;18.10;54.80;;;;;;4976183;28;20030;-67
2023/12/09 08:43:01;;;;;;;10.38;4.32;;;18.10;54.80;;;;;;4978742;28;20035;-66
2023/12/09 08:45:26;;;;;;;8.35;4.03;;;18.10;54.90;;;;;;4977408;28;20023;-66
2023/12/09 08:47:52;;;;;;;9.38;4.65;;;18.10;54.90;;;;;;4980739;28;20465;-66
2023/12/09 08:50:18;;;;;;;6.82;4.30;;;18.10;54.90;;;;;;4978654;28;20037;-64
2023/12/09 08:52:43;;;;;;;7.53;4.35;;;18.00;54.90;;;;;;4974484;28;20031;-64
2023/12/09 08:55:09;;;;;;;8.93;4.35;;;18.10;55.00;;;;;;4970475;28;20532;-65
2023/12/09 08:57:35;;;;;;;8.43;4.93;;;18.10;55.00;;;;;;4974005;28;20513;-66
2023/12/09 09:00:01;;;;;;;10.68;4.30;;;18.10;54.90;;;;;;4970269;28;20085;-66
2023/12/09 09:02:27;;;;;;;5.78;3.35;;;18.20;54.70;;;;;;4973577;28;20117;-66
2023/12/09 09:04:53;;;;;;;7.18;4.43;;;18.30;54.40;;;;;;4970046;28;20102;-66
2023/12/09 09:07:18;;;;;;;8.43;3.88;;;18.50;54.10;;;;;;4972170;28;20031;-66
2023/12/09 09:09:44;;;;;;;6.47;3.80;;;18.70;53.70;;;;;;4969979;28;20037;-66
2023/12/09 09:12:09;;;;;;;8.10;3.85;;;19.00;53.20;;;;;;4974979;28;20645;-66
2023/12/09 09:14:36;;;;;;;7.82;3.45;;;19.30;52.70;;;;;;4979095;28;20140;-66
2023/12/09 09:17:02;;;;;;;6.97;3.80;;;19.60;52.10;;;;;;4975892;28;20030;-66
2023/12/09 09:19:28;;;;;;;8.13;3.47;;;19.80;51.60;;;;;;4985893;28;20041;-65
2023/12/09 09:21:53;;;;;;;8.75;3.85;;;20.10;51.30;;;;;;4986790;28;20046;-66
2023/12/09 09:24:19;;;;;;;7.53;3.55;;;20.20;50.90;;;;;;4986879;28;20679;-66
2023/12/09 09:26:44;;;;;;;6.28;3.10;;;20.40;50.60;;;;;;4986850;28;20054;-65
2023/12/09 09:29:10;;;;;;;7.13;2.85;;;20.60;50.30;;;;;;4974581;28;20027;-66
2023/12/09 09:31:36;;;;;;;7.20;3.58;;;20.80;50.10;;;;;;4970393;28;20441;-66
2023/12/09 09:34:01;;;;;;;6.05;2.95;;;20.90;49.80;;;;;;4981816;28;20037;-66
2023/12/09 09:36:27;;;;;;;5.63;3.00;;;21.00;49.70;;;;;;4974520;28;20037;-66
2023/12/09 09:38:52;;;;;;;4.38;3.13;;;21.10;49.70;;;;;;4976117;28;20035;-66
2023/12/09 09:41:24;;;;;;;5.07;2.65;;;21.00;49.80;;;;;;4970076;28;20031;-67
2023/12/09 09:44:07;;;;;;;5.40;3.10;;;21.00;50.00;;;;;;4986399;28;20031;-66
2023/12/09 09:46:34;;;;;;;7.18;3.10;;;20.90;50.10;;;;;;4978829;28;20027;-66
2023/12/09 09:49:02;;;;;;;6.22;3.30;;;20.80;50.30;;;;;;4982147;28;20027;-66
2023/12/09 09:51:30;;;;;;;5.97;3.17;;;20.70;50.50;;;;;;4983518;28;20042;-66
2023/12/09 09:54:15;;;;;;;4.10;2.45;;;20.60;50.70;;;;;;4980198;28;20085;-66
2023/12/09 09:56:42;;;;;;;7.03;3.30;;;20.50;50.80;;;;;;4984166;28;20050;-66
2023/12/09 09:59:09;;;;;;;5.85;2.78;;;20.40;51.10;;;;;;4986072;28;20093;-66
2023/12/09 10:01:37;;;;;;;4.25;2.58;;;20.30;51.30;;;;;;4975173;28;20042;-67
2023/12/09 10:04:03;;;;;;;6.07;3.47;;;20.20;51.40;;;;;;4967871;28;20035;-67
2023/12/09 10:06:29;;;;;;;5.15;2.40;;;20.20;51.70;;;;;;4954448;28;20118;-67
2023/12/09 10:08:55;;;;;;;6.63;2.92;;;20.10;51.90;;;;;;4967752;28;20454;-66
2023/12/09 10:11:21;;;;;;;4.72;2.90;;;20.00;52.10;;;;;;4979712;28;20030;-67
2023/12/09 10:13:47;;;;;;;6.38;2.97;;;19.90;52.10;;;;;;4986310;28;20027;-67
2023/12/09 10:16:12;;;;;;;4.88;2.53;;;19.80;52.20;;;;;;4982836;28;20038;-67
2023/12/09 10:18:46;;;;;;;4.47;2.45;;;19.80;52.40;;;;;;4978573;28;20125;-67
2023/12/09 10:21:13;;;;;;;4.20;2.33;;;19.70;52.60;;;;;;4971396;28;20058;-66
2023/12/09 10:23:39;;;;;;;5.00;2.60;;;19.60;52.80;;;;;;4965561;28;20078;-67
2023/12/09 10:26:05;;;;;;;5.30;2.40;;;19.50;52.80;;;;;;4962188;28;20086;-67
2023/12/09 10:28:31;;;;;;;5.20;3.00;;;19.50;52.90;;;;;;4964045;28;20445;-66
2023/12/09 10:30:56;;;;;;;4.78;2.50;;;19.40;52.90;;;;;;4967397;28;20039;-64
2023/12/09 10:33:22;;;;;;;3.95;2.67;;;19.40;52.90;;;;;;4966661;28;20631;-66
2023/12/09 10:35:49;;;;;;;2.85;1.70;;;19.30;53.00;;;;;;4952887;28;20053;-66
2023/12/09 10:38:17;;;;;;;4.38;2.10;;;19.30;53.20;;;;;;4958059;28;20046;-66
2023/12/09 10:40:43;;;;;;;3.92;2.15;;;19.20;53.10;;;;;;4965901;28;20031;-68
2023/12/09 10:43:08;;;;;;;4.13;2.10;;;19.20;53.30;;;;;;4966681;28;20035;-64
2023/12/09 10:45:34;;;;;;;3.95;2.13;;;19.10;53.20;;;;;;4965675;28;20035;-66
2023/12/09 10:47:59;;;;;;;3.45;2.10;;;19.10;53.30;;;;;;4960895;28;20031;-66
2023/12/09 10:50:25;;;;;;;3.20;1.67;;;19.00;53.30;;;;;;4959767;28;20039;-64
2023/12/09 10:52:50;;;;;;;5.35;1.88;;;19.00;53.50;;;;;;4960093;28;20039;-65
2023/12/09 10:55:16;;;;;;;2.97;1.88;;;19.00;53.60;;;;;;4961267;28;20104;-67
2023/12/09 10:57:43;;;;;;;2.70;1.55;;;19.00;53.60;;;;;;4964598;28;20046;-64
2023/12/09 11:00:14;;;;;;;3.58;2.00;;;18.90;53.60;;;;;;4961736;28;20050;-66
2023/12/09 11:02:40;;;;;;;2.97;2.00;;;18.80;53.70;;;;;;4958813;28;20035;-67
2023/12/09 11:05:12;;;;;;;2.95;1.75;;;18.90;53.80;;;;;;4962419;28;20133;-65
2023/12/09 11:07:40;;;;;;;3.42;1.65;;;18.80;53.60;;;;;;4957881;28;20026;-67
2023/12/09 11:10:09;;;;;;;3.25;1.92;;;18.80;53.90;;;;;;4956899;28;20032;-64
2023/12/09 11:12:37;;;;;;;5.03;2.33;;;18.80;53.60;;;;;;4958436;28;20019;-66
2023/12/09 11:15:18;;;;;;;4.03;2.42;;;18.80;53.70;;;;;;4959356;28;20510;-64
2023/12/09 11:17:44;;;;;;;2.50;1.90;;;18.70;53.50;;;;;;4960894;28;20038;-65
2023/12/09 11:20:13;;;;;;;3.72;2.10;;;18.70;53.60;;;;;;4962765;28;20043;-65
2023/12/09 11:22:41;;;;;;;3.95;1.98;;;18.70;53.70;;;;;;4957139;28;20299;-63
2023/12/09 11:25:08;;;;;;;2.90;1.92;;;18.70;53.70;;;;;;4963553;28;20054;-65
2023/12/09 11:27:36;;;;;;;3.15;1.92;;;18.60;53.70;;;;;;4956503;28;20035;-64
2023/12/09 11:30:01;;;;;;;3.17;1.80;;;18.60;54.50;;;;;;4959081;28;20031;-63
2023/12/09 11:32:29;;;;;;;2.45;1.55;;;18.50;53.90;;;;;;4962798;28;20512;-64
2023/12/09 11:34:56;;;;;;;3.40;1.80;;;18.50;54.00;;;;;;4960728;28;20410;-66
2023/12/09 11:37:25;;;;;;;3.15;2.03;;;18.50;54.00;;;;;;4961678;28;20043;-66
2023/12/09 11:39:51;;;;;;;4.00;2.17;;;18.50;54.10;;;;;;4948494;28;20054;-66
2023/12/09 11:42:18;;;;;;;3.42;1.55;;;18.50;54.10;;;;;;4955872;28;20031;-64
2023/12/09 11:44:46;;;;;;;4.72;2.22;;;18.50;54.80;;;;;;4964083;28;20030;-64
2023/12/09 11:47:12;;;;;;;2.65;1.98;;;18.40;54.20;;;;;;4965428;28;20198;-64
2023/12/09 11:49:38;;;;;;;2.95;1.95;;;18.40;54.30;;;;;;4953287;28;20098;-67
2023/12/09 11:52:04;;;;;;;2.85;1.67;;;18.30;54.40;;;;;;4962618;28;20058;-62
2023/12/09 11:54:29;;;;;;;3.53;1.92;;;18.30;54.40;;;;;;4962713;28;20026;-62
2023/12/09 11:56:54;;;;;;;3.80;2.00;;;18.30;54.50;;;;;;4957840;28;20035;-62
2023/12/09 11:59:20;;;;;;;2.58;1.35;;;18.30;54.60;;;;;;4964526;28;20484;-63
2023/12/09 12:01:45;;;;;;;2.53;1.75;;;18.20;54.70;;;;;;4965305;28;20027;-63
2023/12/09 12:04:11;;;;;;;2.03;1.48;;;18.20;54.90;;;;;;4956926;28;20102;-64
2023/12/09 12:06:36;;;;;;;3.22;2.03;;;18.20;54.90;;;;;;4958027;28;20574;-64
2023/12/09 12:09:05;;;;;;;3.45;1.80;;;18.20;55.00;;;;;;4963253;28;20031;-64
2023/12/09 12:11:32;;;;;;;3.05;1.70;;;18.20;55.00;;;;;;4954521;28;20091;-63
2023/12/09 12:14:00;;;;;;;4.30;1.92;;;18.20;55.10;;;;;;4962701;28;20023;-63
2023/12/09 12:16:25;;;;;;;2.63;1.38;;;18.20;55.10;;;;;;4964906;28;20042;-64
2023/12/09 12:18:54;;;;;;;2.63;1.45;;;18.20;55.10;;;;;;4959793;28;20525;-63
2023/12/09 12:21:20;;;;;;;2.65;1.38;;;18.10;55.10;;;;;;4968014;28;20034;-66
2023/12/09 12:23:51;;;;;;;5.15;1.75;;;18.10;55.10;;;;;;4957758;28;20038;-64
2023/12/09 12:26:17;;;;;;;2.35;1.63;;;18.10;55.10;;;;;;4962154;28;20090;-65
2023/12/09 12:28:47;;;;;;;3.35;1.55;;;18.20;55.10;;;;;;4963598;28;20030;-64
2023/12/09 12:31:13;;;;;;;3.33;1.70;;;18.30;55.10;;;;;;4965000;28;20598;-65
2023/12/09 12:33:39;;;;;;;2.85;1.90;;;18.50;54.80;;;;;;4957104;28;20040;-65
2023/12/09 12:36:05;;;;;;;2.63;1.60;;;18.80;54.20;;;;;;4969300;28;20031;-65
2023/12/09 12:38:32;;;;;;;2.60;1.58;;;19.10;53.50;;;;;;4963843;28;20536;-66
2023/12/09 12:40:57;;;;;;;2.83;1.67;;;19.50;52.90;;;;;;4963459;28;20042;-66